Terminal Aerodrome Forecast
Issued by NWS Twin Cities, MN

Home | Current Version | Previous Version | Text Only | Print | Product List | Glossary On
Versions: 1 2 3 4 5 6 7 8 9 10 11 12 13 14 15 16 17
000
FTUS43 KMPX 051120
TAFEAU
TAF
KEAU 051120Z 0512/0612 VRB02KT P6SM SKC
     FM051600 11004KT P6SM FEW050 FEW250
     FM052000 19004KT P6SM FEW050 SCT250
     FM060100 12003KT P6SM BKN250=

USA.gov is the U.S. government's official web portal to all federal, state and local government web resources and services.